sensor_id;sensor_type;location;lat;lon;timestamp;P1;durP1;ratioP1;P2;durP2;ratioP2
21281;SDS011;10800;53.096;18.328;2022-10-26T00:01:01;9.30;;;3.83;;
21281;SDS011;10800;53.096;18.328;2022-10-26T00:06:06;8.10;;;3.50;;
21281;SDS011;10800;53.096;18.328;2022-10-26T00:11:17;7.53;;;3.70;;
21281;SDS011;10800;53.096;18.328;2022-10-26T00:16:24;9.20;;;4.10;;
21281;SDS011;10800;53.096;18.328;2022-10-26T00:21:31;9.50;;;4.97;;
21281;SDS011;10800;53.096;18.328;2022-10-26T00:26:37;17.07;;;4.37;;
21281;SDS011;10800;53.096;18.328;2022-10-26T00:31:42;8.00;;;3.90;;
21281;SDS011;10800;53.096;18.328;2022-10-26T00:36:48;10.73;;;4.13;;
21281;SDS011;10800;53.096;18.328;2022-10-26T00:41:53;10.30;;;5.07;;
21281;SDS011;10800;53.096;18.328;2022-10-26T00:46:58;4.37;;;3.10;;
21281;SDS011;10800;53.096;18.328;2022-10-26T00:52:03;11.17;;;5.53;;
21281;SDS011;10800;53.096;18.328;2022-10-26T00:57:15;14.37;;;6.27;;
21281;SDS011;10800;53.096;18.328;2022-10-26T01:02:22;13.87;;;5.07;;
21281;SDS011;10800;53.096;18.328;2022-10-26T01:07:27;19.33;;;7.10;;
21281;SDS011;10800;53.096;18.328;2022-10-26T01:12:32;17.90;;;6.93;;
21281;SDS011;10800;53.096;18.328;2022-10-26T01:17:54;19.43;;;6.43;;
21281;SDS011;10800;53.096;18.328;2022-10-26T01:23:11;10.70;;;6.07;;
21281;SDS011;10800;53.096;18.328;2022-10-26T01:33:58;14.73;;;5.00;;
21281;SDS011;10800;53.096;18.328;2022-10-26T01:39:01;17.83;;;6.27;;
21281;SDS011;10800;53.096;18.328;2022-10-26T01:44:09;11.60;;;5.90;;
21281;SDS011;10800;53.096;18.328;2022-10-26T01:49:15;21.83;;;6.73;;
21281;SDS011;10800;53.096;18.328;2022-10-26T01:54:23;13.53;;;6.43;;
21281;SDS011;10800;53.096;18.328;2022-10-26T01:59:36;22.67;;;7.57;;
21281;SDS011;10800;53.096;18.328;2022-10-26T02:20:46;9.57;;;4.50;;
21281;SDS011;10800;53.096;18.328;2022-10-26T02:25:54;16.10;;;5.90;;
21281;SDS011;10800;53.096;18.328;2022-10-26T02:31:00;12.73;;;5.60;;
21281;SDS011;10800;53.096;18.328;2022-10-26T02:36:09;11.37;;;5.43;;
21281;SDS011;10800;53.096;18.328;2022-10-26T02:41:16;13.93;;;7.10;;
21281;SDS011;10800;53.096;18.328;2022-10-26T02:46:25;14.90;;;5.63;;
21281;SDS011;10800;53.096;18.328;2022-10-26T02:51:38;17.57;;;6.50;;
21281;SDS011;10800;53.096;18.328;2022-10-26T02:57:04;12.10;;;5.80;;
21281;SDS011;10800;53.096;18.328;2022-10-26T03:02:06;18.03;;;6.63;;
21281;SDS011;10800;53.096;18.328;2022-10-26T03:07:12;19.60;;;6.33;;
21281;SDS011;10800;53.096;18.328;2022-10-26T03:12:18;20.67;;;6.80;;
21281;SDS011;10800;53.096;18.328;2022-10-26T03:17:24;17.67;;;6.60;;
21281;SDS011;10800;53.096;18.328;2022-10-26T03:22:29;31.20;;;7.93;;
21281;SDS011;10800;53.096;18.328;2022-10-26T03:27:34;30.47;;;8.27;;
21281;SDS011;10800;53.096;18.328;2022-10-26T03:32:40;17.23;;;6.90;;
21281;SDS011;10800;53.096;18.328;2022-10-26T03:37:45;19.33;;;7.57;;
21281;SDS011;10800;53.096;18.328;2022-10-26T03:42:51;16.77;;;6.93;;
21281;SDS011;10800;53.096;18.328;2022-10-26T03:47:56;25.03;;;7.83;;
21281;SDS011;10800;53.096;18.328;2022-10-26T03:53:01;25.67;;;7.73;;
21281;SDS011;10800;53.096;18.328;2022-10-26T03:58:07;28.67;;;9.13;;
21281;SDS011;10800;53.096;18.328;2022-10-26T04:03:13;28.47;;;9.67;;
21281;SDS011;10800;53.096;18.328;2022-10-26T04:08:19;28.27;;;9.97;;
21281;SDS011;10800;53.096;18.328;2022-10-26T04:13:24;28.67;;;8.23;;
21281;SDS011;10800;53.096;18.328;2022-10-26T04:18:29;29.73;;;8.07;;
21281;SDS011;10800;53.096;18.328;2022-10-26T04:23:34;25.43;;;8.57;;
21281;SDS011;10800;53.096;18.328;2022-10-26T04:28:40;22.93;;;7.20;;
21281;SDS011;10800;53.096;18.328;2022-10-26T04:33:51;22.30;;;8.93;;
21281;SDS011;10800;53.096;18.328;2022-10-26T04:38:57;21.07;;;7.60;;
21281;SDS011;10800;53.096;18.328;2022-10-26T04:44:03;16.23;;;7.30;;
21281;SDS011;10800;53.096;18.328;2022-10-26T04:49:12;19.77;;;6.90;;
21281;SDS011;10800;53.096;18.328;2022-10-26T04:54:19;16.87;;;5.10;;
21281;SDS011;10800;53.096;18.328;2022-10-26T04:59:25;11.93;;;4.77;;
21281;SDS011;10800;53.096;18.328;2022-10-26T05:04:34;14.33;;;6.33;;
21281;SDS011;10800;53.096;18.328;2022-10-26T05:09:40;11.57;;;5.50;;
21281;SDS011;10800;53.096;18.328;2022-10-26T05:14:48;27.63;;;7.73;;
21281;SDS011;10800;53.096;18.328;2022-10-26T05:19:55;16.20;;;5.93;;
21281;SDS011;10800;53.096;18.328;2022-10-26T05:25:01;13.00;;;6.20;;
21281;SDS011;10800;53.096;18.328;2022-10-26T05:30:09;17.03;;;7.40;;
21281;SDS011;10800;53.096;18.328;2022-10-26T05:35:15;12.03;;;5.27;;
21281;SDS011;10800;53.096;18.328;2022-10-26T05:40:21;9.97;;;4.77;;
21281;SDS011;10800;53.096;18.328;2022-10-26T05:45:27;13.97;;;7.00;;
21281;SDS011;10800;53.096;18.328;2022-10-26T05:50:33;17.70;;;6.93;;
21281;SDS011;10800;53.096;18.328;2022-10-26T05:55:41;12.13;;;5.43;;
21281;SDS011;10800;53.096;18.328;2022-10-26T06:00:53;13.13;;;5.57;;
21281;SDS011;10800;53.096;18.328;2022-10-26T06:06:05;15.53;;;5.20;;
21281;SDS011;10800;53.096;18.328;2022-10-26T06:11:18;13.37;;;6.33;;
21281;SDS011;10800;53.096;18.328;2022-10-26T06:16:30;28.00;;;10.30;;
21281;SDS011;10800;53.096;18.328;2022-10-26T06:32:30;16.33;;;6.50;;
21281;SDS011;10800;53.096;18.328;2022-10-26T06:37:40;14.77;;;6.77;;
21281;SDS011;10800;53.096;18.328;2022-10-26T06:42:57;10.93;;;5.37;;
21281;SDS011;10800;53.096;18.328;2022-10-26T06:48:07;10.37;;;4.90;;
21281;SDS011;10800;53.096;18.328;2022-10-26T06:58:32;8.80;;;4.57;;
21281;SDS011;10800;53.096;18.328;2022-10-26T07:03:42;7.53;;;4.10;;
21281;SDS011;10800;53.096;18.328;2022-10-26T07:08:50;9.37;;;4.50;;
21281;SDS011;10800;53.096;18.328;2022-10-26T07:13:55;11.67;;;5.37;;
21281;SDS011;10800;53.096;18.328;2022-10-26T07:19:01;10.20;;;4.00;;
21281;SDS011;10800;53.096;18.328;2022-10-26T07:24:12;8.80;;;3.87;;
21281;SDS011;10800;53.096;18.328;2022-10-26T07:29:43;9.73;;;4.80;;
21281;SDS011;10800;53.096;18.328;2022-10-26T07:34:54;7.90;;;3.70;;
21281;SDS011;10800;53.096;18.328;2022-10-26T07:40:03;6.37;;;3.87;;
21281;SDS011;10800;53.096;18.328;2022-10-26T07:45:12;5.83;;;3.93;;
21281;SDS011;10800;53.096;18.328;2022-10-26T07:50:17;7.80;;;3.43;;
21281;SDS011;10800;53.096;18.328;2022-10-26T07:55:23;9.27;;;3.73;;
21281;SDS011;10800;53.096;18.328;2022-10-26T08:00:30;7.50;;;3.90;;
21281;SDS011;10800;53.096;18.328;2022-10-26T08:05:36;6.23;;;3.70;;
21281;SDS011;10800;53.096;18.328;2022-10-26T08:10:42;7.40;;;4.30;;
21281;SDS011;10800;53.096;18.328;2022-10-26T08:15:48;7.77;;;4.83;;
21281;SDS011;10800;53.096;18.328;2022-10-26T08:20:53;13.73;;;4.60;;
21281;SDS011;10800;53.096;18.328;2022-10-26T08:26:01;12.70;;;4.07;;
21281;SDS011;10800;53.096;18.328;2022-10-26T08:31:07;9.23;;;4.53;;
21281;SDS011;10800;53.096;18.328;2022-10-26T08:36:12;7.50;;;4.07;;
21281;SDS011;10800;53.096;18.328;2022-10-26T08:41:35;8.07;;;3.73;;
21281;SDS011;10800;53.096;18.328;2022-10-26T08:46:41;8.50;;;4.77;;
21281;SDS011;10800;53.096;18.328;2022-10-26T08:51:48;9.63;;;4.33;;
21281;SDS011;10800;53.096;18.328;2022-10-26T08:56:57;7.80;;;4.60;;
21281;SDS011;10800;53.096;18.328;2022-10-26T09:02:11;9.67;;;4.67;;
21281;SDS011;10800;53.096;18.328;2022-10-26T09:23:14;10.77;;;5.43;;
21281;SDS011;10800;53.096;18.328;2022-10-26T09:28:35;18.97;;;4.50;;
21281;SDS011;10800;53.096;18.328;2022-10-26T09:33:42;7.77;;;4.03;;
21281;SDS011;10800;53.096;18.328;2022-10-26T09:49:42;10.47;;;4.60;;
21281;SDS011;10800;53.096;18.328;2022-10-26T09:54:52;7.97;;;4.47;;
21281;SDS011;10800;53.096;18.328;2022-10-26T10:00:01;8.27;;;3.53;;
21281;SDS011;10800;53.096;18.328;2022-10-26T10:05:31;9.83;;;4.50;;
21281;SDS011;10800;53.096;18.328;2022-10-26T10:11:27;8.73;;;4.80;;
21281;SDS011;10800;53.096;18.328;2022-10-26T10:16:10;11.57;;;5.47;;
21281;SDS011;10800;53.096;18.328;2022-10-26T10:21:18;12.80;;;5.40;;
21281;SDS011;10800;53.096;18.328;2022-10-26T10:26:27;11.00;;;4.60;;
21281;SDS011;10800;53.096;18.328;2022-10-26T10:31:35;13.50;;;4.40;;
21281;SDS011;10800;53.096;18.328;2022-10-26T10:36:41;13.17;;;5.37;;
21281;SDS011;10800;53.096;18.328;2022-10-26T10:41:47;11.83;;;5.13;;
21281;SDS011;10800;53.096;18.328;2022-10-26T10:47:15;18.80;;;5.30;;
21281;SDS011;10800;53.096;18.328;2022-10-26T10:53:17;7.90;;;4.47;;
21281;SDS011;10800;53.096;18.328;2022-10-26T11:10:01;8.67;;;5.10;;
21281;SDS011;10800;53.096;18.328;2022-10-26T11:16:05;14.33;;;6.30;;
21281;SDS011;10800;53.096;18.328;2022-10-26T11:21:24;12.20;;;5.80;;
21281;SDS011;10800;53.096;18.328;2022-10-26T11:27:01;12.43;;;5.10;;
21281;SDS011;10800;53.096;18.328;2022-10-26T11:32:14;12.67;;;6.40;;
21281;SDS011;10800;53.096;18.328;2022-10-26T11:37:44;12.13;;;5.23;;
21281;SDS011;10800;53.096;18.328;2022-10-26T11:43:11;8.07;;;5.00;;
21281;SDS011;10800;53.096;18.328;2022-10-26T11:48:23;12.70;;;5.80;;
21281;SDS011;10800;53.096;18.328;2022-10-26T11:53:39;17.00;;;6.17;;
21281;SDS011;10800;53.096;18.328;2022-10-26T11:58:41;14.33;;;6.43;;
21281;SDS011;10800;53.096;18.328;2022-10-26T12:03:50;9.07;;;4.53;;
21281;SDS011;10800;53.096;18.328;2022-10-26T12:09:15;14.57;;;6.30;;
21281;SDS011;10800;53.096;18.328;2022-10-26T12:14:22;14.20;;;5.13;;
21281;SDS011;10800;53.096;18.328;2022-10-26T12:19:30;14.03;;;6.67;;
21281;SDS011;10800;53.096;18.328;2022-10-26T12:24:46;12.43;;;5.83;;
21281;SDS011;10800;53.096;18.328;2022-10-26T12:30:13;15.80;;;6.67;;
21281;SDS011;10800;53.096;18.328;2022-10-26T12:40:42;12.30;;;5.77;;
21281;SDS011;10800;53.096;18.328;2022-10-26T12:56:35;13.13;;;6.43;;
21281;SDS011;10800;53.096;18.328;2022-10-26T13:01:48;17.77;;;8.40;;
21281;SDS011;10800;53.096;18.328;2022-10-26T13:07:17;13.70;;;5.20;;
21281;SDS011;10800;53.096;18.328;2022-10-26T13:12:28;11.03;;;5.57;;
21281;SDS011;10800;53.096;18.328;2022-10-26T13:17:35;13.40;;;7.03;;
21281;SDS011;10800;53.096;18.328;2022-10-26T13:22:43;11.67;;;6.43;;
21281;SDS011;10800;53.096;18.328;2022-10-26T13:27:59;15.93;;;7.80;;
21281;SDS011;10800;53.096;18.328;2022-10-26T13:33:20;14.50;;;7.70;;
21281;SDS011;10800;53.096;18.328;2022-10-26T13:38:30;16.47;;;5.37;;
21281;SDS011;10800;53.096;18.328;2022-10-26T13:43:39;14.03;;;6.87;;
21281;SDS011;10800;53.096;18.328;2022-10-26T13:48:45;18.40;;;8.10;;
21281;SDS011;10800;53.096;18.328;2022-10-26T13:53:56;13.20;;;7.07;;
21281;SDS011;10800;53.096;18.328;2022-10-26T13:59:08;14.93;;;7.87;;
21281;SDS011;10800;53.096;18.328;2022-10-26T14:04:27;21.03;;;8.00;;
21281;SDS011;10800;53.096;18.328;2022-10-26T14:09:33;18.53;;;7.43;;
21281;SDS011;10800;53.096;18.328;2022-10-26T14:14:39;14.13;;;7.50;;
21281;SDS011;10800;53.096;18.328;2022-10-26T14:19:45;12.77;;;6.40;;
21281;SDS011;10800;53.096;18.328;2022-10-26T14:24:58;15.90;;;8.13;;
21281;SDS011;10800;53.096;18.328;2022-10-26T14:30:26;13.33;;;6.03;;
21281;SDS011;10800;53.096;18.328;2022-10-26T14:35:33;14.27;;;6.37;;
21281;SDS011;10800;53.096;18.328;2022-10-26T14:40:38;14.90;;;7.10;;
21281;SDS011;10800;53.096;18.328;2022-10-26T14:45:47;15.60;;;6.90;;
21281;SDS011;10800;53.096;18.328;2022-10-26T14:51:05;30.70;;;12.53;;
21281;SDS011;10800;53.096;18.328;2022-10-26T15:01:51;31.43;;;13.83;;
21281;SDS011;10800;53.096;18.328;2022-10-26T15:07:08;15.53;;;8.90;;
21281;SDS011;10800;53.096;18.328;2022-10-26T15:17:34;22.10;;;8.53;;
21281;SDS011;10800;53.096;18.328;2022-10-26T15:22:44;12.53;;;7.10;;
21281;SDS011;10800;53.096;18.328;2022-10-26T15:28:10;22.70;;;8.77;;
21281;SDS011;10800;53.096;18.328;2022-10-26T15:33:19;19.43;;;8.73;;
21281;SDS011;10800;53.096;18.328;2022-10-26T15:38:25;16.50;;;6.77;;
21281;SDS011;10800;53.096;18.328;2022-10-26T15:43:32;13.23;;;6.60;;
21281;SDS011;10800;53.096;18.328;2022-10-26T15:48:37;14.47;;;6.20;;
21281;SDS011;10800;53.096;18.328;2022-10-26T15:53:44;14.70;;;6.77;;
21281;SDS011;10800;53.096;18.328;2022-10-26T15:58:56;12.57;;;6.40;;
21281;SDS011;10800;53.096;18.328;2022-10-26T16:04:05;14.60;;;7.17;;
21281;SDS011;10800;53.096;18.328;2022-10-26T16:09:15;13.50;;;6.83;;
21281;SDS011;10800;53.096;18.328;2022-10-26T16:14:22;17.50;;;8.00;;
21281;SDS011;10800;53.096;18.328;2022-10-26T16:19:29;18.13;;;7.67;;
21281;SDS011;10800;53.096;18.328;2022-10-26T16:24:36;19.93;;;6.97;;
21281;SDS011;10800;53.096;18.328;2022-10-26T16:29:41;20.50;;;7.67;;
21281;SDS011;10800;53.096;18.328;2022-10-26T16:34:46;19.57;;;7.33;;
21281;SDS011;10800;53.096;18.328;2022-10-26T16:39:51;15.60;;;7.63;;
21281;SDS011;10800;53.096;18.328;2022-10-26T16:45:04;12.50;;;6.50;;
21281;SDS011;10800;53.096;18.328;2022-10-26T16:50:19;17.83;;;6.37;;
21281;SDS011;10800;53.096;18.328;2022-10-26T16:55:26;20.23;;;6.20;;
21281;SDS011;10800;53.096;18.328;2022-10-26T17:00:38;15.30;;;6.07;;
21281;SDS011;10800;53.096;18.328;2022-10-26T17:05:43;13.40;;;5.50;;
21281;SDS011;10800;53.096;18.328;2022-10-26T17:10:48;23.57;;;5.80;;
21281;SDS011;10800;53.096;18.328;2022-10-26T17:16:03;20.33;;;6.97;;
21281;SDS011;10800;53.096;18.328;2022-10-26T17:21:17;16.13;;;6.23;;
21281;SDS011;10800;53.096;18.328;2022-10-26T17:26:26;27.00;;;9.53;;
21281;SDS011;10800;53.096;18.328;2022-10-26T17:31:47;23.60;;;10.97;;
21281;SDS011;10800;53.096;18.328;2022-10-26T17:36:43;24.73;;;11.17;;
21281;SDS011;10800;53.096;18.328;2022-10-26T17:41:48;26.43;;;10.40;;
21281;SDS011;10800;53.096;18.328;2022-10-26T17:46:55;25.87;;;10.93;;
21281;SDS011;10800;53.096;18.328;2022-10-26T17:52:03;23.97;;;10.53;;
21281;SDS011;10800;53.096;18.328;2022-10-26T17:57:09;28.40;;;10.30;;
21281;SDS011;10800;53.096;18.328;2022-10-26T18:02:16;24.73;;;9.73;;
21281;SDS011;10800;53.096;18.328;2022-10-26T18:07:21;17.73;;;8.23;;
21281;SDS011;10800;53.096;18.328;2022-10-26T18:12:26;20.57;;;7.77;;
21281;SDS011;10800;53.096;18.328;2022-10-26T18:17:31;20.80;;;8.13;;
21281;SDS011;10800;53.096;18.328;2022-10-26T18:22:37;19.63;;;8.10;;
21281;SDS011;10800;53.096;18.328;2022-10-26T18:27:44;16.80;;;6.90;;
21281;SDS011;10800;53.096;18.328;2022-10-26T18:32:50;14.00;;;8.13;;
21281;SDS011;10800;53.096;18.328;2022-10-26T18:37:58;24.87;;;9.13;;
21281;SDS011;10800;53.096;18.328;2022-10-26T18:43:03;17.57;;;8.63;;
21281;SDS011;10800;53.096;18.328;2022-10-26T18:48:12;28.87;;;8.53;;
21281;SDS011;10800;53.096;18.328;2022-10-26T18:53:17;32.13;;;10.83;;
21281;SDS011;10800;53.096;18.328;2022-10-26T18:58:39;32.27;;;11.20;;
21281;SDS011;10800;53.096;18.328;2022-10-26T19:03:46;32.87;;;13.03;;
21281;SDS011;10800;53.096;18.328;2022-10-26T19:08:54;38.47;;;11.80;;
21281;SDS011;10800;53.096;18.328;2022-10-26T19:14:18;45.77;;;15.10;;
21281;SDS011;10800;53.096;18.328;2022-10-26T19:19:24;37.77;;;11.90;;
21281;SDS011;10800;53.096;18.328;2022-10-26T19:24:29;30.43;;;11.67;;
21281;SDS011;10800;53.096;18.328;2022-10-26T19:29:36;38.43;;;12.07;;
21281;SDS011;10800;53.096;18.328;2022-10-26T19:34:47;31.37;;;12.97;;
21281;SDS011;10800;53.096;18.328;2022-10-26T19:39:52;62.07;;;18.47;;
21281;SDS011;10800;53.096;18.328;2022-10-26T19:44:57;44.73;;;16.13;;
21281;SDS011;10800;53.096;18.328;2022-10-26T19:50:03;34.00;;;13.07;;
21281;SDS011;10800;53.096;18.328;2022-10-26T19:55:11;45.50;;;14.30;;
21281;SDS011;10800;53.096;18.328;2022-10-26T20:00:39;46.87;;;15.23;;
21281;SDS011;10800;53.096;18.328;2022-10-26T20:05:47;65.10;;;25.40;;
21281;SDS011;10800;53.096;18.328;2022-10-26T20:10:54;57.13;;;21.67;;
21281;SDS011;10800;53.096;18.328;2022-10-26T20:16:06;50.73;;;16.20;;
21281;SDS011;10800;53.096;18.328;2022-10-26T20:21:15;43.77;;;15.40;;
21281;SDS011;10800;53.096;18.328;2022-10-26T20:26:42;31.43;;;12.93;;
21281;SDS011;10800;53.096;18.328;2022-10-26T20:31:47;35.80;;;12.07;;
21281;SDS011;10800;53.096;18.328;2022-10-26T20:36:54;36.27;;;12.03;;
21281;SDS011;10800;53.096;18.328;2022-10-26T20:41:59;36.20;;;11.67;;
21281;SDS011;10800;53.096;18.328;2022-10-26T20:47:06;42.13;;;14.33;;
21281;SDS011;10800;53.096;18.328;2022-10-26T20:52:13;36.60;;;14.63;;
21281;SDS011;10800;53.096;18.328;2022-10-26T20:57:24;28.43;;;10.97;;
21281;SDS011;10800;53.096;18.328;2022-10-26T21:02:31;32.83;;;10.83;;
21281;SDS011;10800;53.096;18.328;2022-10-26T21:07:36;27.33;;;10.77;;
21281;SDS011;10800;53.096;18.328;2022-10-26T21:12:41;29.80;;;10.73;;
21281;SDS011;10800;53.096;18.328;2022-10-26T21:17:47;23.20;;;10.27;;
21281;SDS011;10800;53.096;18.328;2022-10-26T21:22:53;26.43;;;10.03;;
21281;SDS011;10800;53.096;18.328;2022-10-26T21:27:59;26.30;;;10.50;;
21281;SDS011;10800;53.096;18.328;2022-10-26T21:33:04;27.17;;;11.60;;
21281;SDS011;10800;53.096;18.328;2022-10-26T21:38:09;21.87;;;9.83;;
21281;SDS011;10800;53.096;18.328;2022-10-26T21:43:14;30.97;;;10.23;;
21281;SDS011;10800;53.096;18.328;2022-10-26T21:48:21;22.80;;;9.07;;
21281;SDS011;10800;53.096;18.328;2022-10-26T21:53:28;19.97;;;8.80;;
21281;SDS011;10800;53.096;18.328;2022-10-26T21:58:34;17.40;;;8.73;;
21281;SDS011;10800;53.096;18.328;2022-10-26T22:03:39;20.50;;;9.47;;
21281;SDS011;10800;53.096;18.328;2022-10-26T22:08:45;22.93;;;10.17;;
21281;SDS011;10800;53.096;18.328;2022-10-26T22:13:51;17.60;;;9.20;;
21281;SDS011;10800;53.096;18.328;2022-10-26T22:18:57;20.40;;;9.03;;
21281;SDS011;10800;53.096;18.328;2022-10-26T22:24:04;19.83;;;8.63;;
21281;SDS011;10800;53.096;18.328;2022-10-26T22:29:11;18.97;;;8.00;;
21281;SDS011;10800;53.096;18.328;2022-10-26T22:34:16;21.37;;;9.23;;
21281;SDS011;10800;53.096;18.328;2022-10-26T22:39:22;21.47;;;8.77;;
21281;SDS011;10800;53.096;18.328;2022-10-26T22:44:27;20.70;;;8.33;;
21281;SDS011;10800;53.096;18.328;2022-10-26T22:49:33;23.57;;;10.73;;
21281;SDS011;10800;53.096;18.328;2022-10-26T23:06:28;22.63;;;9.13;;
21281;SDS011;10800;53.096;18.328;2022-10-26T23:11:35;23.77;;;9.03;;
21281;SDS011;10800;53.096;18.328;2022-10-26T23:16:42;27.97;;;10.47;;
21281;SDS011;10800;53.096;18.328;2022-10-26T23:21:47;25.10;;;9.23;;
21281;SDS011;10800;53.096;18.328;2022-10-26T23:26:52;22.53;;;10.93;;
21281;SDS011;10800;53.096;18.328;2022-10-26T23:31:57;29.13;;;9.27;;
21281;SDS011;10800;53.096;18.328;2022-10-26T23:42:28;24.43;;;10.17;;
21281;SDS011;10800;53.096;18.328;2022-10-26T23:47:33;24.00;;;10.53;;
21281;SDS011;10800;53.096;18.328;2022-10-26T23:52:39;34.40;;;10.93;;
21281;SDS011;10800;53.096;18.328;2022-10-26T23:57:44;31.57;;;9.43;;
